Mobile, AL (36601)

4:29 PM CDT on August 23, 2016 (GMT -0500)
Downtown Waterfront | | Change Station

Elev 13 ft 30.69 °N, 88.04 °W | Updated 0 second ago

Scattered Clouds
Scattered Clouds
94.6 °F
Feels Like 105 °F
N
4.0
Wind Variable Wind from NNE
Gusts 11.0 mph

Today
High -- | Low -- °F
--% Chance of Precip.
Yesterday
High -- | Low -- °F
Precip. -- in
Pressure 30.13 in
Visibility 10.0 miles
Clouds Scattered Clouds 3700 ft
Heat Index 105 °F
Dew Point 74 °F
Humidity 51%
Rainfall 0.00 in
Snow Depth Not available.
6:23 AM 7:25 PM
Waning Gibbous, 64% visible
METAR KBFM 232053Z 15003KT 10SM SCT037 34/24 A3013 RMK AO2 LTG DSNT SE SLP203 T03390244 56024
Pressure 30.13 in
Visibility 10.0 miles
Clouds Scattered Clouds 3700 ft
Heat Index 105 °F
Dew Point 74 °F
Humidity 51%
Rainfall 0.00 in
Snow Depth Not available.
6:23 AM 7:25 PM
Waning Gibbous, 64% visible
METAR KBFM 232053Z 15003KT 10SM SCT037 34/24 A3013 RMK AO2 LTG DSNT SE SLP203 T03390244 56024

10-Day Weather Forecast

Almanac

Astronomy

Aug. 23, 2016 Rise Set
Actual Time
Civil Twilight
Nautical Twilight
Astronomical Twilight
Moon
Length of Visible Light
Length of Day
Tomorrow will be .
, % of the Moon is Illuminated

Today's Extremes

State Highs State Lows

Community

WunderPhotos

Upload Photos

1,934,464 photos uploaded!

WunderBlog® & News

Nearby

Air Quality

  Air Quality AQ Index Pollutant
Not available.

Snow Depth

Station Depth Elevation

Earthquake Activity

City Distance Mag. Time & Date
Minimum magnitude displayed is 2.5.

Coastal Water Temperatures

Place Temperature

Stations

Nearby Weather Stations

Station Location Temp. Windchill Dew Point Humidity Wind Precip. Elev Updated Type
                   

Watches & Warnings

There are currently no watches in effect.